createdAt,value
2022-11-07T00:00:18.438Z,100920.53
2022-11-07T00:02:43.208Z,100915.98
2022-11-07T00:05:09.386Z,100917.58
2022-11-07T00:07:57.799Z,100917.35
2022-11-07T00:09:08.238Z,100922.26
2022-11-07T00:11:34.671Z,100915.45
2022-11-07T00:12:43.713Z,100919.80
2022-11-07T00:15:08.533Z,100918.48
2022-11-07T00:17:34.852Z,100920.08
2022-11-07T00:18:44.980Z,100927.02
2022-11-07T00:21:10.331Z,100916.45
2022-11-07T00:23:35.886Z,100922.16
2022-11-07T00:26:07.380Z,100909.16
2022-11-07T00:28:42.419Z,100908.09
2022-11-07T00:31:08.689Z,100907.65
2022-11-07T00:33:33.961Z,100905.42
2022-11-07T00:36:01.577Z,100897.91
2022-11-07T00:37:10.269Z,100907.09
2022-11-07T00:39:36.752Z,100907.31
2022-11-07T00:40:55.060Z,100904.34
2022-11-07T00:43:19.333Z,100896.50
2022-11-07T00:45:44.007Z,100895.50
2022-11-07T00:46:53.896Z,100908.78
2022-11-07T00:48:02.532Z,100905.57
2022-11-07T00:49:11.728Z,100903.22
2022-11-07T00:50:21.453Z,100904.42
2022-11-07T00:52:46.053Z,100893.98
2022-11-07T00:55:11.768Z,100892.59
2022-11-07T00:57:41.374Z,100895.57
2022-11-07T00:58:56.236Z,100881.67
2022-11-07T01:01:25.549Z,100876.32
2022-11-07T01:04:09.567Z,100882.12
2022-11-07T01:06:38.119Z,100880.77
2022-11-07T01:07:47.888Z,100883.94
2022-11-07T01:10:14.357Z,100870.84
2022-11-07T01:11:25.877Z,100878.73
2022-11-07T01:13:52.594Z,100876.50
2022-11-07T01:16:18.745Z,100873.45
2022-11-07T01:17:30.531Z,100883.02
2022-11-07T01:18:40.202Z,100882.13
2022-11-07T01:19:49.353Z,100879.22
2022-11-07T01:20:59.218Z,100874.58
2022-11-07T01:23:28.021Z,100876.27
2022-11-07T01:25:52.006Z,100872.36
2022-11-07T01:28:16.897Z,100870.69
2022-11-07T01:30:43.347Z,100867.06
2022-11-07T01:31:52.795Z,100866.00
2022-11-07T01:34:17.918Z,100865.44
2022-11-07T01:36:42.239Z,100863.39
2022-11-07T01:37:51.352Z,100870.20
2022-11-07T01:39:01.805Z,100862.11
2022-11-07T01:41:35.053Z,100863.09
2022-11-07T01:44:13.816Z,100848.23
2022-11-07T01:45:29.690Z,100860.02
2022-11-07T01:48:00.145Z,100851.83
2022-11-07T01:50:42.179Z,100851.40
2022-11-07T01:53:22.165Z,100851.95
2022-11-07T01:54:35.542Z,100861.22
2022-11-07T01:58:23.230Z,100843.19
2022-11-07T01:59:35.017Z,100852.53
2022-11-07T02:02:00.721Z,100840.23
2022-11-07T02:04:31.585Z,100851.95
2022-11-07T02:07:20.616Z,100835.17
2022-11-07T02:08:33.169Z,100844.89
2022-11-07T02:09:43.764Z,100843.59
2022-11-07T02:10:54.281Z,100837.64
2022-11-07T02:12:04.139Z,100841.58
2022-11-07T02:14:33.455Z,100832.77
2022-11-07T02:16:57.596Z,100828.02
2022-11-07T02:20:52.706Z,100826.39
2022-11-07T02:22:15.173Z,100839.02
2022-11-07T02:24:51.248Z,100826.38
2022-11-07T02:26:01.102Z,100837.19
2022-11-07T02:28:31.054Z,100825.56
2022-11-07T02:29:41.698Z,100824.91
2022-11-07T02:33:32.997Z,100818.23
2022-11-07T02:34:45.611Z,100831.12
2022-11-07T02:38:37.217Z,100832.12
2022-11-07T02:41:06.316Z,100823.80
2022-11-07T02:43:55.407Z,100826.92
2022-11-07T02:45:05.875Z,100822.50
2022-11-07T02:47:33.045Z,100825.72
2022-11-07T02:48:45.570Z,100833.78
2022-11-07T02:51:11.059Z,100830.52
2022-11-07T02:53:37.180Z,100831.00
2022-11-07T02:54:46.361Z,100837.79
2022-11-07T02:57:30.919Z,100835.27
2022-11-07T02:58:41.620Z,100838.09
2022-11-07T03:01:06.930Z,100835.03
2022-11-07T03:03:31.981Z,100832.52
2022-11-07T03:05:56.287Z,100843.49
2022-11-07T03:08:22.223Z,100834.14
2022-11-07T03:09:32.585Z,100842.33
2022-11-07T03:11:56.303Z,100846.00
2022-11-07T03:14:21.098Z,100845.66
2022-11-07T03:16:46.746Z,100838.45
2022-11-07T03:19:12.654Z,100842.64
2022-11-07T03:21:36.742Z,100843.28
2022-11-07T03:24:04.098Z,100839.25
2022-11-07T03:26:29.379Z,100841.92
2022-11-07T03:29:04.404Z,100840.28
2022-11-07T03:30:14.481Z,100839.95
2022-11-07T03:32:40.170Z,100840.06
2022-11-07T03:35:05.171Z,100831.64
2022-11-07T03:37:30.532Z,100827.51
2022-11-07T03:39:55.303Z,100831.34
2022-11-07T03:42:21.818Z,100819.32
2022-11-07T03:43:30.835Z,100825.92
2022-11-07T03:45:56.170Z,100815.48
2022-11-07T03:47:05.533Z,100822.43
2022-11-07T03:49:29.543Z,100809.51
2022-11-07T03:50:39.423Z,100821.14
2022-11-07T03:51:51.120Z,100824.16
2022-11-07T03:53:00.891Z,100818.36
2022-11-07T03:55:26.031Z,100810.45
2022-11-07T03:57:51.098Z,100808.38
2022-11-07T04:00:18.185Z,100814.58
2022-11-07T04:02:44.963Z,100808.74
2022-11-07T04:03:56.314Z,100818.77
2022-11-07T04:06:23.363Z,100810.36
2022-11-07T04:07:33.239Z,100807.84
2022-11-07T04:09:58.585Z,100803.84
2022-11-07T04:12:41.973Z,100805.94
2022-11-07T04:15:44.655Z,100804.25
2022-11-07T04:18:28.806Z,100801.90
2022-11-07T04:20:52.389Z,100800.39
2022-11-07T04:22:01.652Z,100795.95
2022-11-07T04:23:10.875Z,100803.57
2022-11-07T04:25:53.420Z,100796.83
2022-11-07T04:28:37.327Z,100791.62
2022-11-07T04:29:46.927Z,100800.34
2022-11-07T04:32:10.514Z,100789.87
2022-11-07T04:34:35.660Z,100793.92
2022-11-07T04:36:59.928Z,100794.33
2022-11-07T04:39:23.575Z,100793.19
2022-11-07T04:41:48.899Z,100793.28
2022-11-07T04:42:58.650Z,100794.41
2022-11-07T04:44:08.282Z,100793.13
2022-11-07T04:46:32.438Z,100785.58
2022-11-07T04:47:41.636Z,100794.73
2022-11-07T04:50:07.821Z,100782.00
2022-11-07T04:51:24.208Z,100796.47
2022-11-07T04:53:48.547Z,100802.82
2022-11-07T04:54:59.028Z,100801.75
2022-11-07T04:57:23.617Z,100800.97
2022-11-07T04:59:47.066Z,100804.23
2022-11-07T05:02:14.195Z,100800.31
2022-11-07T05:04:53.903Z,100806.98
2022-11-07T06:50:12.658Z,100853.77
2022-11-07T06:51:21.634Z,100856.52
2022-11-07T06:53:45.716Z,100857.77
2022-11-07T06:57:30.164Z,100850.44
2022-11-07T06:59:55.948Z,100853.55
2022-11-07T07:02:44.134Z,100859.55
2022-11-07T07:03:34.799Z,100868.22
2022-11-07T07:04:44.059Z,100868.52
2022-11-07T07:07:29.927Z,100864.84
2022-11-07T07:09:54.728Z,100869.48
2022-11-07T07:11:06.915Z,100870.97
2022-11-07T07:13:32.116Z,100861.88
2022-11-07T07:14:41.828Z,100868.66
2022-11-07T07:17:12.220Z,100858.60
2022-11-07T07:18:23.554Z,100860.11
2022-11-07T07:19:47.347Z,100865.39
2022-11-07T07:21:05.610Z,100859.11
2022-11-07T07:22:15.519Z,100863.50
2022-11-07T07:24:40.515Z,100859.48
2022-11-07T07:27:04.538Z,100855.14
2022-11-07T07:29:29.739Z,100861.42
2022-11-07T07:30:38.978Z,100861.89
2022-11-07T07:33:04.877Z,100857.03
2022-11-07T07:35:29.052Z,100861.50
2022-11-07T07:36:38.094Z,100860.30
2022-11-07T07:39:08.660Z,100857.14
2022-11-07T07:41:39.881Z,100858.03
2022-11-07T07:44:00.504Z,100854.62
2022-11-07T07:46:28.530Z,100850.27
2022-11-07T07:48:54.804Z,100853.83
2022-11-07T07:51:21.479Z,100854.91
2022-11-07T07:53:45.163Z,100859.97
2022-11-07T07:56:11.190Z,100862.61
2022-11-07T07:57:20.854Z,100859.20
2022-11-07T07:59:47.594Z,100852.33
2022-11-07T08:02:15.037Z,100850.36
2022-11-07T08:03:50.593Z,100853.27
2022-11-07T08:05:58.918Z,100840.46
2022-11-07T08:08:25.463Z,100841.91
2022-11-07T08:10:59.013Z,100843.48
2022-11-07T08:13:25.971Z,100852.75
2022-11-07T08:15:51.454Z,100846.73
2022-11-07T08:17:10.692Z,100847.16
2022-11-07T08:18:22.176Z,100842.73
2022-11-07T08:19:33.151Z,100839.31
2022-11-07T08:20:43.459Z,100839.47
2022-11-07T08:21:54.247Z,100838.69
2022-11-07T08:23:03.902Z,100844.03
2022-11-07T08:24:13.899Z,100845.97
2022-11-07T08:26:38.418Z,100842.00
2022-11-07T08:29:08.094Z,100839.39
2022-11-07T08:30:18.288Z,100843.44
2022-11-07T08:32:41.940Z,100847.49
2022-11-07T08:35:05.853Z,100843.14
2022-11-07T08:36:15.874Z,100848.13
2022-11-07T08:38:39.507Z,100843.30
2022-11-07T08:39:48.829Z,100848.27
2022-11-07T08:41:05.401Z,100851.80
2022-11-07T08:43:30.267Z,100840.63
2022-11-07T08:45:55.621Z,100839.62
2022-11-07T08:47:08.616Z,100849.94
2022-11-07T08:48:18.307Z,100843.66
2022-11-07T08:49:27.903Z,100841.84
2022-11-07T08:50:38.781Z,100843.52
2022-11-07T08:51:47.461Z,100841.77
2022-11-07T08:54:12.089Z,100844.59
2022-11-07T08:56:35.930Z,100842.61
2022-11-07T08:59:00.126Z,100845.37
2022-11-07T09:01:25.373Z,100844.36
2022-11-07T09:03:56.441Z,100837.07
2022-11-07T09:06:15.947Z,100841.53
2022-11-07T09:08:40.570Z,100827.61
2022-11-07T09:09:49.733Z,100834.27
2022-11-07T09:12:19.265Z,100832.25
2022-11-07T09:13:30.804Z,100837.02
2022-11-07T09:14:42.895Z,100835.12
2022-11-07T09:16:01.066Z,100831.44
2022-11-07T09:17:09.878Z,100838.53
2022-11-07T09:19:56.862Z,100825.56
2022-11-07T09:22:20.639Z,100829.23
2022-11-07T09:24:44.030Z,100832.84
2022-11-07T09:27:08.017Z,100828.97
2022-11-07T09:28:17.225Z,100825.75
2022-11-07T09:30:41.468Z,100818.78
2022-11-07T09:31:50.422Z,100822.66
2022-11-07T09:33:00.339Z,100822.66
2022-11-07T09:35:25.989Z,100804.36
2022-11-07T09:37:51.799Z,100801.83
2022-11-07T09:40:26.372Z,100810.09
2022-11-07T09:43:40.299Z,100798.07
2022-11-07T09:46:26.454Z,100801.83
2022-11-07T09:49:19.814Z,100795.97
2022-11-07T09:53:40.684Z,100785.63
2022-11-07T09:56:18.444Z,100778.05
2022-11-07T09:58:51.786Z,100784.25
2022-11-07T10:01:22.878Z,100782.67
2022-11-07T10:04:22.755Z,100783.75
2022-11-07T10:06:37.060Z,100780.34
2022-11-07T10:09:25.827Z,100777.55
2022-11-07T10:10:41.555Z,100783.17
2022-11-07T10:12:00.602Z,100783.02
2022-11-07T10:14:55.506Z,100777.16
2022-11-07T10:18:13.029Z,100773.78
2022-11-07T10:21:38.511Z,100772.12
2022-11-07T10:22:39.373Z,100777.83
2022-11-07T10:26:00.768Z,100762.63
2022-11-07T10:28:29.682Z,100763.94
2022-11-07T10:31:07.544Z,100752.80
2022-11-07T10:34:06.744Z,100753.51
2022-11-07T10:36:42.531Z,100750.62
2022-11-07T10:37:54.216Z,100754.59
2022-11-07T10:40:34.658Z,100750.16
2022-11-07T10:44:49.091Z,100744.34
2022-11-07T10:45:59.332Z,100747.61
2022-11-07T10:48:38.880Z,100728.56
2022-11-07T10:51:36.212Z,100739.27
2022-11-07T10:52:54.821Z,100738.77
2022-11-07T10:55:22.517Z,100741.66
2022-11-07T10:57:56.283Z,100738.83
2022-11-07T11:00:30.738Z,100741.19
2022-11-07T11:01:40.927Z,100746.94
2022-11-07T11:04:06.521Z,100740.91
2022-11-07T11:06:41.247Z,100733.89
2022-11-07T11:09:16.615Z,100730.64
2022-11-07T11:10:29.432Z,100731.23
2022-11-07T11:11:39.160Z,100728.56
2022-11-07T11:14:14.266Z,100727.39
2022-11-07T11:16:43.332Z,100726.75
2022-11-07T11:19:29.398Z,100731.32
2022-11-07T11:21:59.005Z,100726.05
2022-11-07T11:24:35.041Z,100724.23
2022-11-07T11:25:49.271Z,100724.74
2022-11-07T11:29:57.776Z,100727.99
2022-11-07T11:32:41.698Z,100720.27
2022-11-07T11:34:02.857Z,100722.42
2022-11-07T11:35:22.924Z,100716.99
2022-11-07T11:36:36.454Z,100728.63
2022-11-07T11:37:51.064Z,100711.80
2022-11-07T11:40:22.555Z,100728.50
2022-11-07T11:43:04.534Z,100719.55
2022-11-07T11:45:56.984Z,100719.55
2022-11-07T11:48:49.025Z,100710.43
2022-11-07T11:51:46.793Z,100713.99
2022-11-07T11:52:55.870Z,100718.16
2022-11-07T11:54:10.498Z,100712.80
2022-11-07T11:55:23.053Z,100718.94
2022-11-07T11:58:05.052Z,100708.69
2022-11-07T12:05:04.778Z,100705.44
2022-11-07T12:08:01.399Z,100703.05
2022-11-07T12:11:00.832Z,100702.13
2022-11-07T12:14:25.888Z,100705.73
2022-11-07T12:17:15.927Z,100694.45
2022-11-07T12:20:05.254Z,100696.68
2022-11-07T12:22:59.277Z,100690.67
2022-11-07T12:25:47.929Z,100690.83
2022-11-07T12:28:54.702Z,100687.38
2022-11-07T12:32:05.065Z,100686.56
2022-11-07T12:35:00.780Z,100695.59
2022-11-07T12:38:26.359Z,100690.48
2022-11-07T12:42:33.197Z,100696.69
2022-11-07T12:45:41.045Z,100693.16
2022-11-07T12:48:26.216Z,100689.67
2022-11-07T12:53:17.754Z,100694.09
2022-11-07T12:54:48.374Z,100698.23
2022-11-07T12:58:44.636Z,100695.09
2022-11-07T13:01:27.581Z,100692.42
2022-11-07T13:02:58.763Z,100696.48
2022-11-07T13:05:49.502Z,100682.81
2022-11-07T13:08:35.059Z,100689.97
2022-11-07T13:11:26.463Z,100691.06
2022-11-07T13:14:29.285Z,100692.88
2022-11-07T13:17:11.076Z,100688.54
2022-11-07T13:18:26.664Z,100689.89
2022-11-07T13:19:40.782Z,100684.69
2022-11-07T13:22:23.723Z,100686.06
2022-11-07T13:25:18.694Z,100678.11
2022-11-07T13:26:48.180Z,100682.95
2022-11-07T13:29:29.275Z,100676.33
2022-11-07T13:32:10.883Z,100676.33
2022-11-07T13:35:00.029Z,100673.66
2022-11-07T13:37:46.099Z,100668.31
2022-11-07T13:38:59.481Z,100670.63
2022-11-07T13:40:15.932Z,100672.48
2022-11-07T13:42:42.344Z,100670.17
2022-11-07T13:43:58.554Z,100674.15
2022-11-07T13:46:45.561Z,100664.82
2022-11-07T13:49:19.057Z,100664.67
2022-11-07T13:52:01.200Z,100668.94
2022-11-07T13:54:50.892Z,100666.34
2022-11-07T13:57:25.531Z,100666.34
2022-11-07T13:58:38.234Z,100672.22
2022-11-07T14:01:22.507Z,100654.94
2022-11-07T14:03:50.290Z,100662.89
2022-11-07T14:06:20.707Z,100656.53
2022-11-07T14:08:51.096Z,100657.38
2022-11-07T14:10:02.376Z,100660.63
2022-11-07T14:12:37.065Z,100660.21
2022-11-07T14:13:49.279Z,100659.78
2022-11-07T14:16:25.900Z,100654.05
2022-11-07T14:17:36.231Z,100664.31
2022-11-07T14:20:16.797Z,100654.05
2022-11-07T14:22:57.894Z,100652.34
2022-11-07T14:25:36.663Z,100653.27
2022-11-07T14:28:17.705Z,100646.92
2022-11-07T14:29:28.421Z,100660.86
2022-11-07T14:32:01.945Z,100650.60
2022-11-07T14:34:39.875Z,100651.69
2022-11-07T14:37:07.436Z,100650.75
2022-11-07T14:39:38.727Z,100648.08
2022-11-07T14:42:06.246Z,100653.35
2022-11-07T14:44:55.669Z,100658.70
2022-11-07T14:48:35.878Z,100652.54
2022-11-07T14:49:47.713Z,100654.78
2022-11-07T14:52:19.154Z,100656.10
2022-11-07T14:55:05.862Z,100657.03
2022-11-07T14:56:18.476Z,100659.27
2022-11-07T14:57:28.252Z,100662.80
2022-11-07T14:58:37.090Z,100661.05
2022-11-07T15:01:12.843Z,100651.69
2022-11-07T15:03:53.260Z,100662.38
2022-11-07T15:05:10.665Z,100668.30
2022-11-07T15:07:47.146Z,100656.52
2022-11-07T15:10:39.907Z,100660.05
2022-11-07T15:13:24.847Z,100653.84
2022-11-07T15:16:10.693Z,100661.87
2022-11-07T15:17:25.817Z,100663.28
2022-11-07T15:20:06.787Z,100662.95
2022-11-07T15:22:45.619Z,100657.75
2022-11-07T15:25:28.740Z,100668.59
2022-11-07T15:26:38.504Z,100664.59
2022-11-07T15:27:47.194Z,100669.93
2022-11-07T15:30:29.929Z,100666.77
2022-11-07T15:32:56.552Z,100671.37
2022-11-07T15:37:55.163Z,100682.66
2022-11-07T15:40:21.200Z,100678.98
2022-11-07T15:42:45.836Z,100682.58
2022-11-07T15:43:55.252Z,100685.70
2022-11-07T15:46:38.836Z,100680.65
2022-11-07T15:47:48.845Z,100684.73
2022-11-07T15:50:18.474Z,100686.84
2022-11-07T15:52:44.082Z,100683.40
2022-11-07T15:55:12.090Z,100693.94
2022-11-07T15:57:41.002Z,100695.53
2022-11-07T16:00:18.670Z,100692.78
2022-11-07T16:02:44.296Z,100692.78
2022-11-07T16:03:53.178Z,100694.94
2022-11-07T16:06:24.240Z,100693.59
2022-11-07T16:07:34.154Z,100690.45
2022-11-07T16:09:59.948Z,100691.70
2022-11-07T16:11:12.107Z,100698.42
2022-11-07T16:13:38.359Z,100695.45
2022-11-07T16:16:06.237Z,100691.86
2022-11-07T16:18:42.353Z,100692.78
2022-11-07T16:21:12.983Z,100697.27
2022-11-07T16:23:39.231Z,100691.05
2022-11-07T16:26:02.924Z,100695.53
2022-11-07T16:27:15.727Z,100688.00
2022-11-07T16:29:43.916Z,100688.30
2022-11-07T16:32:17.331Z,100690.04
2022-11-07T16:34:39.248Z,100680.35
2022-11-07T16:37:06.966Z,100686.70
2022-11-07T16:39:33.747Z,100679.50
2022-11-07T16:40:44.086Z,100688.00
2022-11-07T16:43:07.763Z,100684.77
2022-11-07T16:45:32.193Z,100684.77
2022-11-07T16:47:59.431Z,100687.44
2022-11-07T16:50:30.944Z,100686.52
2022-11-07T16:53:00.400Z,100682.02
2022-11-07T16:55:25.824Z,100683.91
2022-11-07T16:57:50.373Z,100681.23
2022-11-07T16:58:59.864Z,100688.86
2022-11-07T17:01:35.413Z,100681.31
2022-11-07T17:04:01.068Z,100664.46
2022-11-07T17:05:10.658Z,100679.20
2022-11-07T17:06:34.442Z,100675.79
2022-11-07T17:09:08.696Z,100674.56
2022-11-07T17:10:18.292Z,100683.06
2022-11-07T17:12:43.131Z,100682.58
2022-11-07T17:15:09.291Z,100669.30
2022-11-07T17:16:23.909Z,100670.74
2022-11-07T17:17:33.017Z,100670.74
2022-11-07T17:19:58.312Z,100659.61
2022-11-07T17:22:27.092Z,100665.69
2022-11-07T17:23:37.289Z,100668.85
2022-11-07T17:26:03.831Z,100659.61
2022-11-07T17:28:39.794Z,100664.09
2022-11-07T17:29:49.823Z,100664.66
2022-11-07T17:32:13.428Z,100665.03
2022-11-07T17:34:36.850Z,100660.61
2022-11-07T17:37:01.745Z,100664.32
2022-11-07T17:39:31.317Z,100651.97
2022-11-07T17:40:40.365Z,100657.72
2022-11-07T17:43:05.386Z,100650.15
2022-11-07T17:45:31.574Z,100652.82
2022-11-07T17:47:59.465Z,100651.16
2022-11-07T17:50:47.357Z,100652.04
2022-11-07T17:53:12.739Z,100647.70
2022-11-07T17:55:38.422Z,100643.28
2022-11-07T17:58:02.440Z,100641.47
2022-11-07T17:59:17.414Z,100642.84
2022-11-07T18:00:27.857Z,100636.64
2022-11-07T18:02:53.607Z,100636.42
2022-11-07T18:05:21.842Z,100642.84
2022-11-07T18:06:33.514Z,100633.64
2022-11-07T18:09:01.412Z,100628.74
2022-11-07T18:10:12.697Z,100636.38
2022-11-07T18:12:39.470Z,100624.55
2022-11-07T18:15:13.884Z,100621.95
2022-11-07T18:17:42.076Z,100623.84
2022-11-07T18:20:09.427Z,100621.17
2022-11-07T18:22:34.654Z,100618.88
2022-11-07T18:24:58.768Z,100618.90
2022-11-07T18:27:27.037Z,100609.14
2022-11-07T18:29:54.086Z,100612.67
2022-11-07T18:31:05.744Z,100624.95
2022-11-07T18:33:30.557Z,100620.41
2022-11-07T18:35:58.183Z,100620.98
2022-11-07T18:38:21.787Z,100621.17
2022-11-07T18:39:30.658Z,100623.70
2022-11-07T18:41:54.694Z,100613.67
2022-11-07T18:43:04.304Z,100616.91
2022-11-07T18:45:29.676Z,100620.21
2022-11-07T18:46:39.557Z,100626.32
2022-11-07T18:47:58.618Z,100628.28
2022-11-07T18:50:23.289Z,100624.65
2022-11-07T18:52:49.409Z,100632.20
2022-11-07T18:55:16.775Z,100639.67
2022-11-07T18:56:27.027Z,100637.53
2022-11-07T18:58:51.775Z,100647.08
2022-11-07T19:01:22.404Z,100652.62
2022-11-07T19:03:48.108Z,100654.61
2022-11-07T19:05:00.102Z,100667.55
2022-11-07T19:06:12.220Z,100672.95
2022-11-07T19:08:39.952Z,100668.84
2022-11-07T19:11:09.167Z,100665.25
2022-11-07T19:12:18.472Z,100671.82
2022-11-07T19:14:42.711Z,100661.63
2022-11-07T19:17:08.778Z,100666.89
2022-11-07T19:18:19.138Z,100678.05
2022-11-07T19:19:28.759Z,100661.15
2022-11-07T19:21:54.484Z,100665.11
2022-11-07T19:23:03.389Z,100673.50
2022-11-07T19:24:13.264Z,100670.89
2022-11-07T19:26:40.008Z,100661.17
2022-11-07T19:29:11.569Z,100662.17
2022-11-07T19:31:39.052Z,100665.38
2022-11-07T19:34:03.252Z,100664.37
2022-11-07T19:36:26.854Z,100664.37
2022-11-07T19:37:36.197Z,100660.42
2022-11-07T19:38:46.055Z,100663.91
2022-11-07T19:39:55.957Z,100665.91
2022-11-07T19:41:06.672Z,100657.97
2022-11-07T19:43:32.434Z,100662.77
2022-11-07T19:45:56.938Z,100670.04
2022-11-07T19:48:22.269Z,100668.91
2022-11-07T19:49:32.019Z,100670.18
2022-11-07T19:51:56.654Z,100661.50
2022-11-07T19:53:06.070Z,100677.33
2022-11-07T19:55:30.979Z,100673.84
2022-11-07T19:56:40.302Z,100677.80
2022-11-07T19:59:06.188Z,100672.92
2022-11-07T20:00:17.756Z,100669.92
2022-11-07T20:02:48.272Z,100667.72
2022-11-07T20:05:15.374Z,100661.92
2022-11-07T20:07:50.286Z,100671.30
2022-11-07T20:10:14.963Z,100658.30
2022-11-07T20:12:40.403Z,100674.63
2022-11-07T20:15:06.218Z,100673.94
2022-11-07T20:16:15.903Z,100677.80
2022-11-07T20:18:40.948Z,100664.26
2022-11-07T20:19:50.162Z,100672.39
2022-11-07T20:22:16.814Z,100662.62
2022-11-07T20:25:00.484Z,100667.84
2022-11-07T20:27:30.330Z,100666.72
2022-11-07T20:29:56.489Z,100662.16
2022-11-07T20:31:13.489Z,100665.35
2022-11-07T20:34:00.496Z,100661.38
2022-11-07T20:36:25.698Z,100653.55
2022-11-07T20:37:36.899Z,100659.47
2022-11-07T20:38:47.112Z,100662.14
2022-11-07T20:41:12.540Z,100647.63
2022-11-07T20:42:21.637Z,100656.22
2022-11-07T20:44:46.290Z,100650.47
2022-11-07T20:45:57.147Z,100654.61
2022-11-07T20:48:23.560Z,100650.75
2022-11-07T20:50:49.035Z,100642.12
2022-11-07T20:51:58.582Z,100653.30
2022-11-07T20:53:08.901Z,100648.83
2022-11-07T20:54:18.024Z,100636.52
2022-11-07T20:56:43.309Z,100649.58
2022-11-07T20:57:52.513Z,100650.84
2022-11-07T21:00:19.117Z,100651.26
2022-11-07T21:02:52.236Z,100655.05
2022-11-07T21:04:05.804Z,100665.23
2022-11-07T21:06:33.935Z,100649.58
2022-11-07T21:08:59.075Z,100657.59
2022-11-07T21:11:24.951Z,100646.84
2022-11-07T21:13:52.933Z,100649.45
2022-11-07T21:16:15.071Z,100650.13
2022-11-07T21:18:39.423Z,100644.66
2022-11-07T21:21:07.001Z,100637.41
2022-11-07T21:22:15.764Z,100642.33
2022-11-07T21:24:43.299Z,100640.25
2022-11-07T21:27:07.447Z,100636.59
2022-11-07T21:29:33.219Z,100639.39
2022-11-07T21:32:02.044Z,100638.64
2022-11-07T21:34:28.140Z,100642.12
2022-11-07T21:36:58.018Z,100629.98
2022-11-07T21:39:42.204Z,100634.70
2022-11-07T21:42:07.712Z,100633.36
2022-11-07T21:43:17.869Z,100644.56
2022-11-07T21:45:42.213Z,100645.19
2022-11-07T21:48:06.158Z,100637.25
2022-11-07T21:50:44.241Z,100632.05
2022-11-07T21:52:59.458Z,100628.62
2022-11-07T21:55:25.608Z,100633.30
2022-11-07T21:57:53.357Z,100630.80
2022-11-07T22:00:41.084Z,100630.01
2022-11-07T22:03:06.177Z,100629.25
2022-11-07T22:05:30.391Z,100634.91
2022-11-07T22:06:43.058Z,100640.68
2022-11-07T22:09:09.432Z,100640.42
2022-11-07T22:11:34.605Z,100647.69
2022-11-07T22:12:43.764Z,100653.55
2022-11-07T22:15:10.408Z,100647.97
2022-11-07T22:16:21.906Z,100647.52
2022-11-07T22:17:31.342Z,100653.77
2022-11-07T22:18:40.933Z,100648.44
2022-11-07T22:21:08.553Z,100639.28
2022-11-07T22:23:35.076Z,100635.88
2022-11-07T22:24:45.256Z,100627.47
2022-11-07T22:25:54.909Z,100639.08
2022-11-07T22:28:18.624Z,100639.66
2022-11-07T22:30:43.200Z,100641.48
2022-11-07T22:33:06.819Z,100637.84
2022-11-07T22:35:36.282Z,100633.34
2022-11-07T22:38:00.406Z,100635.95
2022-11-07T22:40:25.999Z,100637.72
2022-11-07T22:42:54.671Z,100629.80
2022-11-07T22:45:18.033Z,100634.14
2022-11-07T22:47:46.281Z,100636.80
2022-11-07T22:49:03.361Z,100639.80
2022-11-07T22:50:12.157Z,100639.93
2022-11-07T22:52:39.603Z,100629.00
2022-11-07T22:55:06.504Z,100631.73
2022-11-07T22:57:34.508Z,100629.92
2022-11-07T23:00:19.557Z,100629.06
2022-11-07T23:01:18.927Z,100630.44
2022-11-07T23:02:28.250Z,100631.30
2022-11-07T23:04:52.900Z,100621.22
2022-11-07T23:07:18.871Z,100630.11
2022-11-07T23:09:43.377Z,100622.05
2022-11-07T23:11:34.934Z,100633.90
2022-11-07T23:12:10.997Z,100631.20
2022-11-07T23:13:25.811Z,100628.58
2022-11-07T23:14:35.583Z,100628.58
2022-11-07T23:16:59.523Z,100620.88
2022-11-07T23:18:08.113Z,100627.59
2022-11-07T23:19:19.137Z,100626.67
2022-11-07T23:20:46.688Z,100626.61
2022-11-07T23:21:56.988Z,100616.02
2022-11-07T23:23:06.151Z,100622.27
2022-11-07T23:24:15.876Z,100621.47
2022-11-07T23:26:40.944Z,100629.16
2022-11-07T23:30:24.693Z,100623.89
2022-11-07T23:31:34.798Z,100626.95
2022-11-07T23:32:43.954Z,100626.03
2022-11-07T23:35:09.390Z,100612.38
2022-11-07T23:37:35.425Z,100602.77
2022-11-07T23:38:45.362Z,100605.04
2022-11-07T23:39:56.632Z,100606.69
2022-11-07T23:42:22.591Z,100602.70
2022-11-07T23:45:10.592Z,100613.42
2022-11-07T23:48:12.763Z,100605.31
2022-11-07T23:51:03.573Z,100598.75
2022-11-07T23:52:14.427Z,100602.64
2022-11-07T23:53:43.380Z,100589.33
2022-11-07T23:56:27.650Z,100581.91
2022-11-07T23:59:14.541Z,100568.72
